Gustavus Airport Gustavus US
ICAO: PAGS
IATA:
Category: Medium
Scheduled Services:

Elevation: 35 ft
TransAlt. 18000 ft.

Airport Communications:
AWOS 3:125.9
ANCHORAGE CNTR:133.2
CTAF:122.5
JUNEAU RDO:122.65

PAGS Zoom In..

If Map Doesn't Load, Click Here

Runways:

(A) RW 02 length 3146 ft width 60 ft
---- / hdg 21

(B) RW 11 length 6721 ft width 150 ft
---- / hdg 115

(C) RW 20 length 3146 ft width 60 ft
---- / hdg 201

(D) RW 29 length 6721 ft width 150 ft
---- / hdg 295

Location; PAGS
Day. 23 / Time. 20.56 Zulu
* Altimeter: 29.85
* Temperature: 13° c. 55.4°f.
* Wind from: 110° Speed 05 kn.
Dewpoint: 11° c.
Visibility: 10 Statute Miles.
Clouds: Broken 1800 ft.
Clouds: Overcast 2300 ft.

PAGS 232056Z AUTO 11005KT 10SM BKN018 OVC023 13/11 A2985 RMK AO2 SLP110 60002 T01280111 53010


Wind From 110°
Speed 05 kn.

 
 
jpsmedia.com for Web Design worldairports.se 2018   terms of use